Time;durP1;ratioP1;P1;durP2;ratioP2;P2;SDS_P1;SDS_P2;PMS_P1;PMS_P2;Temp;Humidity;BMP_temperature;BMP_pressure;BME280_temperature;BME280_humidity;BME280_pressure;Samples;Min_cycle;Max_cycle;Signal;HPM_P1;HPM_P2
2024/01/25 00:00:22;;;;;;;5.28;2.50;;;29.40;63.10;;;;;;5063519;28;20020;-86
2024/01/25 00:02:49;;;;;;;8.95;2.70;;;29.40;63.10;;;;;;5064993;28;20411;-81
2024/01/25 00:05:17;;;;;;;4.50;2.35;;;29.40;63.00;;;;;;5063818;28;20020;-81
2024/01/25 00:07:51;;;;;;;8.45;2.70;;;29.40;62.40;;;;;;5058540;28;20064;-82
2024/01/25 00:10:19;;;;;;;6.07;2.70;;;29.40;61.90;;;;;;5063169;28;20078;-82
2024/01/25 00:12:46;;;;;;;7.80;2.85;;;29.50;61.70;;;;;;5071985;28;20031;-82
2024/01/25 00:15:14;;;;;;;16.17;2.83;;;29.50;61.80;;;;;;5071354;28;20111;-85
2024/01/25 00:17:42;;;;;;;7.35;2.67;;;29.60;62.40;;;;;;5064850;28;20049;-82
2024/01/25 00:20:11;;;;;;;10.15;2.70;;;29.60;61.70;;;;;;5064856;28;20032;-89
2024/01/25 00:22:38;;;;;;;12.60;3.13;;;29.60;62.10;;;;;;5075542;28;20040;-83
2024/01/25 00:25:06;;;;;;;9.73;3.17;;;29.60;62.30;;;;;;5064542;28;20109;-87
2024/01/25 00:27:33;;;;;;;9.65;3.20;;;29.60;62.90;;;;;;5069092;28;20020;-81
2024/01/25 00:30:01;;;;;;;11.15;2.88;;;29.60;63.40;;;;;;5073148;28;20510;-82
2024/01/25 00:32:28;;;;;;;20.75;4.10;;;29.60;63.70;;;;;;5069342;28;20074;-86
2024/01/25 00:34:55;;;;;;;13.82;3.25;;;29.70;63.80;;;;;;5078771;28;20028;-81
2024/01/25 00:37:23;;;;;;;13.43;3.10;;;29.60;64.00;;;;;;5087623;28;20458;-83
2024/01/25 00:39:51;;;;;;;15.07;3.40;;;29.60;64.20;;;;;;5074725;28;20033;-88
2024/01/25 00:42:23;;;;;;;14.00;3.63;;;29.60;64.50;;;;;;5082487;28;20029;-83
2024/01/25 00:44:50;;;;;;;14.70;3.75;;;29.70;65.00;;;;;;5081620;28;20024;-80
2024/01/25 00:47:19;;;;;;;14.95;4.32;;;29.70;64.90;;;;;;5086351;28;20036;-81
2024/01/25 00:49:47;;;;;;;16.42;3.67;;;29.70;65.00;;;;;;5085703;28;20082;-85
2024/01/25 00:52:15;;;;;;;14.13;3.47;;;29.70;64.90;;;;;;5062932;28;20039;-80
2024/01/25 00:54:43;;;;;;;11.80;3.20;;;29.60;65.00;;;;;;5058946;28;20108;-78
2024/01/25 00:57:11;;;;;;;16.88;3.70;;;29.60;65.10;;;;;;5060927;28;20447;-81
2024/01/25 00:59:39;;;;;;;13.77;3.20;;;29.60;65.10;;;;;;5057704;28;20032;-81
2024/01/25 01:02:08;;;;;;;10.13;3.50;;;29.50;64.80;;;;;;5069208;28;20021;-82
2024/01/25 01:04:37;;;;;;;13.30;3.30;;;29.50;65.00;;;;;;5070449;28;20090;-82
2024/01/25 01:07:05;;;;;;;14.23;3.63;;;29.50;65.10;;;;;;5085090;28;20027;-83
2024/01/25 01:09:32;;;;;;;11.13;4.13;;;29.40;64.90;;;;;;5074101;28;20086;-83
2024/01/25 01:12:00;;;;;;;14.77;3.50;;;29.30;65.10;;;;;;5090556;28;20073;-86
2024/01/25 01:14:27;;;;;;;13.60;3.65;;;29.30;65.30;;;;;;5083860;28;20309;-81
2024/01/25 01:16:55;;;;;;;14.77;3.83;;;29.30;65.20;;;;;;5092760;28;20072;-86
2024/01/25 01:19:22;;;;;;;12.82;3.72;;;29.30;65.30;;;;;;5070258;28;20021;-83
2024/01/25 01:21:50;;;;;;;11.43;3.60;;;29.30;65.30;;;;;;5073465;28;20032;-83
2024/01/25 01:24:17;;;;;;;14.80;3.78;;;29.30;65.20;;;;;;5079542;28;20100;-82
2024/01/25 01:26:46;;;;;;;13.02;3.78;;;29.20;65.20;;;;;;5083807;28;20024;-84
2024/01/25 01:29:13;;;;;;;15.25;3.97;;;29.20;65.50;;;;;;5084843;28;20432;-84
2024/01/25 01:31:41;;;;;;;9.95;3.78;;;29.20;65.60;;;;;;5071507;28;20025;-83
2024/01/25 01:34:08;;;;;;;13.95;3.60;;;29.20;66.00;;;;;;5073029;28;20384;-82
2024/01/25 01:36:36;;;;;;;17.23;4.15;;;29.30;66.10;;;;;;5074162;28;20023;-83
2024/01/25 01:39:03;;;;;;;12.00;3.72;;;29.30;66.30;;;;;;5068552;28;20066;-86
2024/01/25 01:41:31;;;;;;;15.48;4.15;;;29.30;66.00;;;;;;5074195;28;20029;-84
2024/01/25 01:43:58;;;;;;;15.60;3.97;;;29.30;65.80;;;;;;5067516;28;20593;-81
2024/01/25 01:46:39;;;;;;;14.07;3.55;;;29.30;65.60;;;;;;5072143;28;20024;-81
2024/01/25 01:49:11;;;;;;;14.95;3.95;;;29.30;65.70;;;;;;5067291;28;20040;-82
2024/01/25 01:51:41;;;;;;;19.77;4.15;;;29.30;65.90;;;;;;5066447;28;20035;-83
2024/01/25 01:54:09;;;;;;;17.42;3.30;;;29.30;65.70;;;;;;5074687;28;20028;-80
2024/01/25 01:56:36;;;;;;;18.55;3.92;;;29.20;65.50;;;;;;5062641;28;20020;-81
2024/01/25 01:59:09;;;;;;;17.73;3.67;;;29.20;65.20;;;;;;5070722;28;20070;-82
2024/01/25 02:01:36;;;;;;;14.07;3.55;;;29.00;65.00;;;;;;5074322;28;20036;-80
2024/01/25 02:04:04;;;;;;;17.50;3.90;;;28.80;65.20;;;;;;5061685;28;20103;-81
2024/01/25 02:06:32;;;;;;;18.85;3.83;;;28.70;66.00;;;;;;5073532;28;20143;-81
2024/01/25 02:08:59;;;;;;;20.77;4.28;;;28.60;66.70;;;;;;5060452;28;20036;-81
2024/01/25 02:11:27;;;;;;;21.15;4.25;;;28.50;66.80;;;;;;5067945;28;20024;-81
2024/01/25 02:13:56;;;;;;;14.25;3.88;;;28.50;67.00;;;;;;5069178;28;20071;-79
2024/01/25 02:16:23;;;;;;;19.42;4.35;;;28.40;67.50;;;;;;5071078;28;20045;-81
2024/01/25 02:18:50;;;;;;;16.40;3.20;;;28.30;67.80;;;;;;5072138;28;20498;-86
2024/01/25 02:21:18;;;;;;;18.30;4.20;;;28.30;67.70;;;;;;5067653;28;20066;-83
2024/01/25 02:23:45;;;;;;;14.30;3.33;;;28.20;67.60;;;;;;5065656;28;20036;-82
2024/01/25 02:26:12;;;;;;;15.27;3.85;;;28.20;67.80;;;;;;5070531;28;20016;-89
2024/01/25 02:28:40;;;;;;;15.85;3.28;;;28.10;68.00;;;;;;5071060;28;20090;-82
2024/01/25 02:31:07;;;;;;;19.75;4.43;;;28.10;68.00;;;;;;5069723;28;20036;-91
2024/01/25 02:33:34;;;;;;;17.27;3.95;;;28.10;68.10;;;;;;5073176;28;20013;-89
2024/01/25 02:36:02;;;;;;;21.20;4.28;;;28.10;68.10;;;;;;5073794;28;20810;-89
2024/01/25 02:38:29;;;;;;;18.17;3.53;;;28.00;68.40;;;;;;5072864;28;21893;-82
2024/01/25 02:40:57;;;;;;;20.65;3.95;;;27.90;67.90;;;;;;5072864;28;20103;-89
2024/01/25 02:43:24;;;;;;;17.15;3.85;;;27.80;68.20;;;;;;5070035;28;20398;-82
2024/01/25 02:45:52;;;;;;;24.00;4.13;;;27.80;68.40;;;;;;5068248;28;20543;-82
2024/01/25 02:48:20;;;;;;;17.45;4.38;;;27.70;68.00;;;;;;5072423;28;20474;-81
2024/01/25 02:50:47;;;;;;;17.38;4.00;;;27.60;68.30;;;;;;5077190;28;20138;-90
2024/01/25 02:53:15;;;;;;;16.83;4.10;;;27.50;68.30;;;;;;5074688;28;20024;-89
2024/01/25 02:55:42;;;;;;;12.60;3.55;;;27.50;68.60;;;;;;5065693;28;20028;-89
2024/01/25 02:58:10;;;;;;;20.42;3.63;;;27.50;69.00;;;;;;5066645;28;20428;-82
2024/01/25 03:00:38;;;;;;;18.35;3.53;;;27.50;68.80;;;;;;5061880;28;20039;-90
2024/01/25 03:03:06;;;;;;;13.88;3.22;;;27.40;68.60;;;;;;5061250;28;20384;-85
2024/01/25 03:05:35;;;;;;;17.25;3.97;;;27.40;69.00;;;;;;5058531;28;20368;-82
2024/01/25 03:08:02;;;;;;;14.73;4.13;;;27.40;69.20;;;;;;5069056;28;20020;-84
2024/01/25 03:10:30;;;;;;;16.15;3.53;;;27.30;69.40;;;;;;5069437;28;20029;-80
2024/01/25 03:12:57;;;;;;;14.13;3.42;;;27.30;69.50;;;;;;5071541;28;20020;-88
2024/01/25 03:15:25;;;;;;;17.83;3.70;;;27.30;69.50;;;;;;5066156;28;20041;-89
2024/01/25 03:17:52;;;;;;;16.02;3.67;;;27.20;69.20;;;;;;5067009;28;20211;-82
2024/01/25 03:20:19;;;;;;;15.98;3.70;;;27.10;69.40;;;;;;5066345;28;20103;-90
2024/01/25 03:22:47;;;;;;;14.32;3.38;;;27.10;69.60;;;;;;5068944;28;20142;-81
2024/01/25 03:25:14;;;;;;;17.08;3.22;;;27.00;69.60;;;;;;5070158;28;20016;-82
2024/01/25 03:27:42;;;;;;;14.18;3.22;;;27.00;69.70;;;;;;5081511;28;20047;-82
2024/01/25 03:30:10;;;;;;;15.63;3.78;;;27.00;69.90;;;;;;5066636;28;20032;-85
2024/01/25 03:32:39;;;;;;;16.52;3.70;;;27.10;70.00;;;;;;5060347;28;20021;-84
2024/01/25 03:35:07;;;;;;;19.08;5.35;;;27.20;70.00;;;;;;5048667;28;20033;-88
2024/01/25 03:37:34;;;;;;;15.07;3.20;;;27.20;70.00;;;;;;5059520;28;20028;-91
2024/01/25 03:40:02;;;;;;;18.02;3.80;;;27.20;70.10;;;;;;5066855;28;20244;-87
2024/01/25 03:42:29;;;;;;;16.98;4.15;;;27.20;70.00;;;;;;5064296;28;20380;-88
2024/01/25 03:44:56;;;;;;;17.00;4.00;;;27.30;69.70;;;;;;5062445;28;20490;-90
2024/01/25 03:47:24;;;;;;;15.68;3.60;;;27.30;69.70;;;;;;5063297;28;20021;-80
2024/01/25 03:49:51;;;;;;;13.30;3.40;;;27.30;69.60;;;;;;5070572;28;20078;-81
2024/01/25 03:52:18;;;;;;;23.65;3.75;;;27.30;69.50;;;;;;5064463;28;20499;-84
2024/01/25 03:54:46;;;;;;;15.82;3.78;;;27.40;69.60;;;;;;5062122;28;20560;-84
2024/01/25 03:57:13;;;;;;;11.48;3.03;;;27.40;69.30;;;;;;5059987;28;20033;-82
2024/01/25 03:59:40;;;;;;;15.98;3.70;;;27.50;69.20;;;;;;5063683;28;20031;-82
2024/01/25 04:02:09;;;;;;;12.43;3.13;;;27.50;68.80;;;;;;5060865;28;20032;-83
2024/01/25 04:04:36;;;;;;;13.52;3.60;;;27.50;68.70;;;;;;5067519;28;20430;-82
2024/01/25 04:07:04;;;;;;;17.33;3.90;;;27.50;68.40;;;;;;5063617;28;20032;-89
2024/01/25 04:09:31;;;;;;;19.27;4.30;;;27.50;68.10;;;;;;5062236;28;20079;-82
2024/01/25 04:11:58;;;;;;;12.30;3.20;;;27.50;68.20;;;;;;5061507;28;20024;-82
2024/01/25 04:14:26;;;;;;;14.75;3.78;;;27.50;68.30;;;;;;5063105;28;20054;-82
2024/01/25 04:16:53;;;;;;;18.25;3.78;;;27.50;68.20;;;;;;5057966;28;20123;-81
2024/01/25 04:19:20;;;;;;;12.30;3.38;;;27.50;68.20;;;;;;5058380;28;20036;-80
2024/01/25 04:21:48;;;;;;;14.27;3.42;;;27.60;68.00;;;;;;5054815;28;20110;-88
2024/01/25 04:24:15;;;;;;;18.13;3.22;;;27.50;68.10;;;;;;5054036;28;20114;-87
2024/01/25 04:26:44;;;;;;;14.45;3.22;;;27.50;68.30;;;;;;5063454;28;20435;-91
2024/01/25 04:29:12;;;;;;;14.52;3.75;;;27.60;68.30;;;;;;5065810;28;20060;-82
2024/01/25 04:31:48;;;;;;;14.98;3.92;;;27.60;68.40;;;;;;5057426;28;20056;-82
2024/01/25 04:34:16;;;;;;;13.50;3.05;;;27.70;68.50;;;;;;5058958;28;20104;-82
2024/01/25 04:36:44;;;;;;;15.32;3.78;;;27.70;68.40;;;;;;5056433;28;20467;-83
2024/01/25 04:39:11;;;;;;;16.08;3.40;;;27.70;68.50;;;;;;5054461;28;22014;-83
2024/01/25 04:41:41;;;;;;;16.77;3.50;;;27.80;68.30;;;;;;5058748;28;22129;-82
2024/01/25 04:44:10;;;;;;;19.35;3.83;;;27.90;68.30;;;;;;5058966;28;20026;-82
2024/01/25 04:46:37;;;;;;;15.98;3.33;;;27.90;68.30;;;;;;5060672;28;20033;-83
2024/01/25 04:49:05;;;;;;;19.52;3.65;;;28.00;68.20;;;;;;5059375;28;20055;-83
2024/01/25 04:51:32;;;;;;;17.63;3.53;;;28.00;67.60;;;;;;5060870;28;20160;-81
2024/01/25 04:53:59;;;;;;;16.50;3.42;;;28.00;67.80;;;;;;5057160;28;20044;-91
2024/01/25 04:56:27;;;;;;;13.95;3.70;;;28.00;67.80;;;;;;5061482;28;20460;-91
2024/01/25 04:58:54;;;;;;;18.50;3.50;;;28.00;67.90;;;;;;5065337;28;20020;-82
2024/01/25 05:01:22;;;;;;;18.10;4.47;;;28.00;68.10;;;;;;5057493;28;20107;-82
2024/01/25 05:03:50;;;;;;;16.98;3.85;;;28.00;68.10;;;;;;5070036;28;20033;-91
2024/01/25 05:06:17;;;;;;;15.10;3.30;;;28.00;68.30;;;;;;5065058;28;20024;-82
2024/01/25 05:08:45;;;;;;;13.90;3.20;;;27.90;68.40;;;;;;5067701;28;20060;-81
2024/01/25 05:11:12;;;;;;;13.38;3.47;;;27.90;68.40;;;;;;5068862;28;20391;-81
2024/01/25 05:13:39;;;;;;;15.32;3.10;;;27.90;68.50;;;;;;5072070;28;20021;-91
2024/01/25 05:16:07;;;;;;;12.30;3.75;;;27.80;68.40;;;;;;5061307;28;20037;-83
2024/01/25 05:18:34;;;;;;;16.90;3.05;;;27.80;68.40;;;;;;5064820;28;20107;-83
2024/01/25 05:21:01;;;;;;;20.58;3.92;;;27.70;68.50;;;;;;5068675;28;20021;-83
2024/01/25 05:23:29;;;;;;;13.32;3.20;;;27.70;68.80;;;;;;5062782;28;20024;-82
2024/01/25 05:25:56;;;;;;;17.35;4.13;;;27.60;68.80;;;;;;5056652;28;20035;-87
2024/01/25 05:28:24;;;;;;;17.75;3.22;;;27.60;69.00;;;;;;5066086;28;20040;-82
2024/01/25 05:30:51;;;;;;;14.18;3.60;;;27.60;69.00;;;;;;5067586;28;20043;-91
2024/01/25 05:33:19;;;;;;;57.85;6.20;;;27.50;68.90;;;;;;5077019;28;20023;-87
2024/01/25 05:35:46;;;;;;;16.50;4.15;;;27.50;68.90;;;;;;5070822;28;20063;-92
2024/01/25 05:38:14;;;;;;;29.92;6.82;;;27.40;68.90;;;;;;5070894;28;20107;-83
2024/01/25 05:40:41;;;;;;;13.07;3.05;;;27.30;69.90;;;;;;5070756;28;20047;-82
2024/01/25 05:43:08;;;;;;;17.77;3.55;;;27.30;69.80;;;;;;5069274;28;20423;-82
2024/01/25 05:45:36;;;;;;;19.67;4.00;;;27.30;69.80;;;;;;5068944;28;20056;-82
2024/01/25 05:48:03;;;;;;;20.75;3.70;;;27.30;69.70;;;;;;5066736;28;20025;-91
2024/01/25 05:50:31;;;;;;;16.45;3.65;;;27.30;69.80;;;;;;5067936;28;20057;-83
2024/01/25 05:52:59;;;;;;;19.13;3.67;;;27.30;70.00;;;;;;5063498;28;20025;-87
2024/01/25 05:55:27;;;;;;;17.77;4.07;;;27.20;70.20;;;;;;5063657;28;20063;-86
2024/01/25 05:57:55;;;;;;;11.60;3.10;;;27.30;70.50;;;;;;5059998;28;20447;-89
2024/01/25 06:00:23;;;;;;;13.75;3.33;;;27.30;70.50;;;;;;5065261;28;20091;-91
2024/01/25 06:02:51;;;;;;;18.33;4.00;;;27.30;70.60;;;;;;5064117;28;20036;-91
2024/01/25 06:05:18;;;;;;;14.35;3.40;;;27.40;70.90;;;;;;5070908;28;20021;-81
2024/01/25 06:07:50;;;;;;;12.27;3.08;;;27.40;70.70;;;;;;5074439;28;20020;-89
2024/01/25 06:10:17;;;;;;;11.55;3.30;;;27.50;70.80;;;;;;5074609;28;20050;-89
2024/01/25 06:12:45;;;;;;;16.98;4.03;;;27.50;70.70;;;;;;5074239;28;20024;-90
2024/01/25 06:15:12;;;;;;;22.63;3.78;;;27.50;70.90;;;;;;5084180;28;20104;-83
2024/01/25 06:17:39;;;;;;;22.27;6.40;;;27.60;71.10;;;;;;5072622;28;20027;-83
2024/01/25 06:20:10;;;;;;;15.35;4.35;;;27.60;71.20;;;;;;5081332;28;20025;-93
2024/01/25 06:22:40;;;;;;;14.82;3.60;;;27.60;71.30;;;;;;5059908;28;20049;-85
2024/01/25 06:25:08;;;;;;;16.33;3.78;;;27.70;71.30;;;;;;5074629;28;20031;-90
2024/01/25 06:27:36;;;;;;;9.93;2.83;;;27.70;71.30;;;;;;5067354;28;20475;-91
2024/01/25 06:30:04;;;;;;;19.95;3.90;;;27.70;71.30;;;;;;5073655;28;20471;-82
2024/01/25 06:32:31;;;;;;;15.13;3.30;;;27.70;71.60;;;;;;5070369;28;20024;-81
2024/01/25 06:34:59;;;;;;;15.13;3.80;;;27.70;71.70;;;;;;5070626;28;20028;-85
2024/01/25 06:37:26;;;;;;;17.35;4.05;;;27.80;71.80;;;;;;5070635;28;20021;-92
2024/01/25 06:39:54;;;;;;;11.38;3.40;;;27.80;71.80;;;;;;5068752;28;20058;-87
2024/01/25 06:42:21;;;;;;;15.93;4.30;;;27.70;71.90;;;;;;5076182;28;20028;-81
2024/01/25 06:44:49;;;;;;;13.00;3.35;;;27.80;71.80;;;;;;5073334;28;20024;-84
2024/01/25 06:47:16;;;;;;;10.18;3.15;;;27.80;71.90;;;;;;5069868;28;20024;-80
2024/01/25 06:49:47;;;;;;;13.82;3.65;;;27.80;71.80;;;;;;5065362;28;20048;-82
2024/01/25 06:52:15;;;;;;;14.23;4.07;;;27.80;71.80;;;;;;5074532;28;20028;-81
2024/01/25 06:54:42;;;;;;;15.75;4.35;;;27.80;72.00;;;;;;5071796;28;20028;-81
2024/01/25 06:57:09;;;;;;;16.10;3.40;;;27.90;72.20;;;;;;5070990;28;20020;-86
2024/01/25 06:59:37;;;;;;;18.25;4.35;;;27.90;72.10;;;;;;5069373;28;20379;-86
2024/01/25 07:02:04;;;;;;;14.27;3.72;;;27.90;72.30;;;;;;5069665;28;20483;-81
2024/01/25 07:04:32;;;;;;;18.00;3.47;;;27.90;71.70;;;;;;5071322;28;20032;-88
2024/01/25 07:07:00;;;;;;;17.00;3.95;;;27.80;71.50;;;;;;5067377;28;20017;-82
2024/01/25 07:09:27;;;;;;;15.95;3.80;;;27.80;70.40;;;;;;5078669;28;20088;-81
2024/01/25 07:11:55;;;;;;;15.35;3.83;;;27.70;70.40;;;;;;5069413;28;20024;-84
2024/01/25 07:14:22;;;;;;;16.52;3.95;;;27.60;70.60;;;;;;5072048;28;20395;-91
2024/01/25 07:16:49;;;;;;;14.98;3.75;;;27.50;70.60;;;;;;5070831;28;20503;-81
2024/01/25 07:19:17;;;;;;;16.60;3.75;;;27.50;70.60;;;;;;5066778;28;20094;-81
2024/01/25 07:21:45;;;;;;;17.65;3.97;;;27.40;70.60;;;;;;5072998;28;20486;-81
2024/01/25 07:24:13;;;;;;;21.60;4.13;;;27.30;70.60;;;;;;5072995;28;20024;-90
2024/01/25 07:26:46;;;;;;;11.95;2.85;;;27.40;70.60;;;;;;5072938;28;20039;-89
2024/01/25 07:29:13;;;;;;;15.82;3.75;;;27.30;70.80;;;;;;5071656;28;20031;-87
2024/01/25 07:31:41;;;;;;;19.67;4.57;;;27.30;70.90;;;;;;5067155;28;20029;-84
2024/01/25 07:34:08;;;;;;;14.98;3.92;;;27.30;71.00;;;;;;5067354;28;20047;-89
2024/01/25 07:36:36;;;;;;;16.83;4.43;;;27.30;71.10;;;;;;5066894;28;20447;-80
2024/01/25 07:39:03;;;;;;;17.73;4.65;;;27.30;71.30;;;;;;5060617;28;20024;-82
2024/01/25 07:41:30;;;;;;;16.92;4.13;;;27.30;71.70;;;;;;5067495;28;20025;-88
2024/01/25 07:43:58;;;;;;;18.13;4.35;;;27.30;71.70;;;;;;5059697;28;20074;-90
2024/01/25 07:46:25;;;;;;;14.73;4.05;;;27.30;71.80;;;;;;5069424;28;20023;-91
2024/01/25 07:48:53;;;;;;;14.93;4.82;;;27.30;72.00;;;;;;5071070;28;20483;-81
2024/01/25 07:51:21;;;;;;;13.90;4.95;;;27.40;72.20;;;;;;5076157;28;20039;-80
2024/01/25 07:53:49;;;;;;;15.18;5.03;;;27.40;72.60;;;;;;5069933;28;20028;-82
2024/01/25 07:56:16;;;;;;;12.02;4.50;;;27.50;73.00;;;;;;5069256;28;20028;-80
2024/01/25 07:58:43;;;;;;;20.15;6.97;;;27.50;73.00;;;;;;5062773;28;20507;-80
2024/01/25 08:01:15;;;;;;;14.80;5.25;;;27.50;73.50;;;;;;5072131;28;20040;-90
2024/01/25 08:03:42;;;;;;;17.85;5.20;;;27.60;73.40;;;;;;5067995;28;20040;-84
2024/01/25 08:06:09;;;;;;;13.77;4.38;;;27.60;73.60;;;;;;5060572;28;20028;-81
2024/01/25 08:08:37;;;;;;;16.67;5.20;;;27.70;73.60;;;;;;5058233;28;20025;-85
2024/01/25 08:11:05;;;;;;;11.70;4.50;;;27.70;73.70;;;;;;5065044;28;20059;-81
2024/01/25 08:13:32;;;;;;;14.90;4.82;;;27.70;73.80;;;;;;5068128;28;20024;-91
2024/01/25 08:16:01;;;;;;;13.05;4.35;;;27.60;73.90;;;;;;5066195;28;20102;-81
2024/01/25 08:18:29;;;;;;;10.82;3.75;;;27.70;74.00;;;;;;5064683;28;20052;-86
2024/01/25 08:20:57;;;;;;;14.05;4.13;;;27.70;74.00;;;;;;5068203;28;20052;-90
2024/01/25 08:23:25;;;;;;;13.50;4.80;;;27.70;74.20;;;;;;5066490;28;20028;-82
2024/01/25 08:25:53;;;;;;;16.25;5.00;;;27.70;74.40;;;;;;5067368;28;20056;-90
2024/01/25 08:28:21;;;;;;;15.27;4.63;;;27.70;74.70;;;;;;5063771;28;20471;-81
2024/01/25 08:30:49;;;;;;;11.73;4.10;;;27.70;74.60;;;;;;5059065;28;20037;-80
2024/01/25 08:33:16;;;;;;;15.18;4.88;;;27.70;74.80;;;;;;5072342;28;20494;-81
2024/01/25 08:35:43;;;;;;;16.80;4.63;;;27.60;74.80;;;;;;5065469;28;20329;-81
2024/01/25 08:38:12;;;;;;;17.13;4.50;;;27.70;74.80;;;;;;5070853;28;20132;-81
2024/01/25 08:40:41;;;;;;;15.70;4.68;;;27.60;74.90;;;;;;5070764;28;20060;-81
2024/01/25 08:43:08;;;;;;;17.67;4.70;;;27.60;75.00;;;;;;5071073;28;20020;-81
2024/01/25 08:45:37;;;;;;;22.15;5.07;;;27.60;75.00;;;;;;5064407;28;20036;-87
2024/01/25 08:48:04;;;;;;;16.98;4.50;;;27.60;75.20;;;;;;5058857;28;20017;-90
2024/01/25 08:50:33;;;;;;;14.38;4.82;;;27.60;75.20;;;;;;5062505;28;20052;-80
2024/01/25 08:53:00;;;;;;;17.55;5.10;;;27.60;75.20;;;;;;5065182;28;20044;-89
2024/01/25 08:55:28;;;;;;;11.45;4.63;;;27.60;75.30;;;;;;5067134;28;20056;-89
2024/01/25 08:57:55;;;;;;;10.60;4.07;;;27.60;75.50;;;;;;5063843;28;20025;-84
2024/01/25 09:00:23;;;;;;;17.30;4.97;;;27.60;75.30;;;;;;5062941;28;20020;-85
2024/01/25 09:02:50;;;;;;;16.13;5.57;;;27.60;75.30;;;;;;5062312;28;20119;-81
2024/01/25 09:05:18;;;;;;;14.88;5.45;;;27.60;75.40;;;;;;5077401;28;20024;-94
2024/01/25 09:07:45;;;;;;;16.90;5.03;;;27.60;75.50;;;;;;5070376;28;20028;-85
2024/01/25 09:10:13;;;;;;;15.10;4.78;;;27.60;75.40;;;;;;5063940;28;20107;-80
2024/01/25 09:12:40;;;;;;;15.65;5.05;;;27.60;75.40;;;;;;5063432;28;20047;-81
2024/01/25 09:15:08;;;;;;;14.73;4.75;;;27.60;75.60;;;;;;5068974;28;20029;-81
2024/01/25 09:17:35;;;;;;;13.13;4.38;;;27.50;75.60;;;;;;5068689;28;20029;-89
2024/01/25 09:20:03;;;;;;;15.43;5.03;;;27.60;75.70;;;;;;5069307;28;20507;-85
2024/01/25 09:22:30;;;;;;;10.73;4.75;;;27.50;75.80;;;;;;5060311;28;20120;-80
2024/01/25 09:24:58;;;;;;;12.07;4.05;;;27.50;75.80;;;;;;5062852;28;20024;-89
2024/01/25 09:27:26;;;;;;;12.35;4.10;;;27.50;75.70;;;;;;5061987;28;20380;-89
2024/01/25 09:29:53;;;;;;;11.30;3.55;;;27.50;75.00;;;;;;5059093;28;20043;-89
2024/01/25 09:32:21;;;;;;;12.07;4.35;;;27.50;74.50;;;;;;5068395;28;20025;-82
2024/01/25 09:34:48;;;;;;;14.75;4.38;;;27.40;74.30;;;;;;5062157;28;20112;-90
2024/01/25 09:37:17;;;;;;;11.77;4.55;;;27.40;74.40;;;;;;5067495;28;20033;-88
2024/01/25 09:39:44;;;;;;;12.23;4.07;;;27.40;74.30;;;;;;5071473;28;20040;-89
2024/01/25 09:42:12;;;;;;;8.00;3.70;;;27.40;74.20;;;;;;5074177;28;20027;-81
2024/01/25 09:44:41;;;;;;;12.68;4.22;;;27.40;74.10;;;;;;5070288;28;20029;-88
2024/01/25 09:47:09;;;;;;;14.35;4.45;;;27.40;74.00;;;;;;5068095;28;20062;-82
2024/01/25 09:49:39;;;;;;;11.35;3.90;;;27.40;73.90;;;;;;5071124;28;20036;-92
2024/01/25 09:52:07;;;;;;;14.45;4.40;;;27.40;73.80;;;;;;5071506;28;20020;-81
2024/01/25 09:54:37;;;;;;;12.73;4.40;;;27.40;73.80;;;;;;5069157;28;20035;-88
2024/01/25 09:57:13;;;;;;;11.00;4.63;;;27.40;73.80;;;;;;5075451;28;20024;-84
2024/01/25 09:59:42;;;;;;;9.57;3.92;;;27.30;73.80;;;;;;5066532;28;20035;-84
2024/01/25 10:02:11;;;;;;;14.77;4.38;;;27.30;73.90;;;;;;5068709;28;20028;-85
2024/01/25 10:04:39;;;;;;;15.90;5.68;;;27.30;73.80;;;;;;5070200;28;20438;-89
2024/01/25 10:07:07;;;;;;;13.18;4.78;;;27.30;73.80;;;;;;5066359;28;20169;-83
2024/01/25 10:09:44;;;;;;;10.85;4.97;;;27.30;73.90;;;;;;5071932;28;20131;-85
2024/01/25 10:12:12;;;;;;;12.73;4.53;;;27.30;74.00;;;;;;5072437;28;20028;-90
2024/01/25 10:14:39;;;;;;;13.10;4.03;;;27.20;74.00;;;;;;5068571;28;20033;-87
2024/01/25 10:17:06;;;;;;;7.80;3.70;;;27.20;74.10;;;;;;5072491;28;20139;-88
2024/01/25 10:19:34;;;;;;;10.82;3.55;;;27.20;74.10;;;;;;5073301;28;20025;-87
2024/01/25 10:22:01;;;;;;;10.65;4.10;;;27.20;74.20;;;;;;5069619;28;20032;-90
2024/01/25 10:24:29;;;;;;;9.38;4.03;;;27.10;74.20;;;;;;5073217;28;20024;-86
2024/01/25 10:26:56;;;;;;;9.35;3.95;;;27.20;74.20;;;;;;5075117;28;20154;-81
2024/01/25 10:29:27;;;;;;;12.20;4.97;;;27.10;74.20;;;;;;5071223;28;20105;-81
2024/01/25 10:31:54;;;;;;;12.80;5.00;;;27.10;74.30;;;;;;5068771;28;20029;-84
2024/01/25 10:34:23;;;;;;;13.95;5.20;;;27.10;74.20;;;;;;5074450;28;20410;-89
2024/01/25 10:36:53;;;;;;;13.80;5.57;;;27.00;74.20;;;;;;5079288;28;20031;-79
2024/01/25 10:39:21;;;;;;;11.80;5.28;;;27.00;74.40;;;;;;5070355;28;20408;-90
2024/01/25 10:41:50;;;;;;;12.45;5.60;;;27.00;74.50;;;;;;5076460;28;20031;-81
2024/01/25 10:44:21;;;;;;;13.63;6.07;;;27.00;74.60;;;;;;5080695;28;20103;-90
2024/01/25 10:46:49;;;;;;;14.80;6.50;;;26.90;74.80;;;;;;5070316;28;20032;-81
2024/01/25 10:49:20;;;;;;;9.90;5.30;;;26.90;74.80;;;;;;5061642;28;20037;-86
2024/01/25 10:51:48;;;;;;;8.88;4.55;;;26.90;75.00;;;;;;5053800;28;20029;-81
2024/01/25 10:54:16;;;;;;;9.45;4.38;;;26.90;75.00;;;;;;5062644;28;20020;-90
2024/01/25 10:56:47;;;;;;;10.98;4.40;;;26.90;75.00;;;;;;5063615;28;20029;-81
2024/01/25 10:59:16;;;;;;;8.43;4.10;;;26.90;75.00;;;;;;5078265;28;20032;-81
2024/01/25 11:01:48;;;;;;;7.45;4.20;;;26.90;74.70;;;;;;5076948;28;20027;-80
2024/01/25 11:04:18;;;;;;;10.85;4.80;;;26.90;74.70;;;;;;5072555;28;20051;-81
2024/01/25 11:06:46;;;;;;;14.20;5.65;;;27.00;74.70;;;;;;5066513;28;20060;-84
2024/01/25 11:09:22;;;;;;;13.60;4.45;;;27.00;74.80;;;;;;5063987;28;20049;-80
2024/01/25 11:11:50;;;;;;;15.98;4.93;;;26.90;75.00;;;;;;5064707;28;20089;-90
2024/01/25 11:14:19;;;;;;;13.80;5.63;;;27.00;75.10;;;;;;5061651;28;20021;-81
2024/01/25 11:16:49;;;;;;;14.85;5.47;;;26.90;75.10;;;;;;5062968;28;20212;-85
2024/01/25 11:19:23;;;;;;;13.73;4.82;;;26.90;75.30;;;;;;5062871;28;20426;-83
2024/01/25 11:21:54;;;;;;;12.02;4.50;;;26.90;75.50;;;;;;5062825;28;20094;-84
2024/01/25 11:24:25;;;;;;;15.52;4.97;;;26.90;75.60;;;;;;5071278;28;20488;-87
2024/01/25 11:26:55;;;;;;;12.90;4.40;;;26.90;75.70;;;;;;5064979;28;20032;-90
2024/01/25 11:29:24;;;;;;;15.02;4.50;;;26.90;75.90;;;;;;5072395;28;20036;-83
2024/01/25 11:31:52;;;;;;;13.90;4.25;;;26.90;75.80;;;;;;5070787;28;20438;-84
2024/01/25 11:34:21;;;;;;;14.35;4.45;;;26.90;75.70;;;;;;5067183;28;20129;-81
2024/01/25 11:36:49;;;;;;;14.68;4.35;;;26.90;75.70;;;;;;5060894;28;20122;-83
2024/01/25 11:39:17;;;;;;;9.77;3.70;;;26.90;75.80;;;;;;5069470;28;20025;-83
2024/01/25 11:41:46;;;;;;;9.25;3.60;;;26.90;75.50;;;;;;5064382;28;20023;-87
2024/01/25 11:44:14;;;;;;;7.60;3.05;;;26.90;75.20;;;;;;5071636;28;20525;-83
2024/01/25 11:46:42;;;;;;;9.43;3.20;;;26.90;74.60;;;;;;5057296;28;20028;-82
2024/01/25 11:49:10;;;;;;;9.85;3.70;;;26.90;74.60;;;;;;5060998;28;20040;-82
2024/01/25 11:51:37;;;;;;;9.85;3.50;;;26.90;74.20;;;;;;5062314;28;20491;-81
2024/01/25 11:54:06;;;;;;;5.65;2.70;;;26.90;74.00;;;;;;5060469;28;20598;-82
2024/01/25 11:56:40;;;;;;;9.50;2.90;;;26.90;74.10;;;;;;5056894;28;20114;-81
2024/01/25 11:59:09;;;;;;;7.88;3.38;;;26.80;74.00;;;;;;5058297;28;20453;-81
2024/01/25 12:01:36;;;;;;;7.97;3.42;;;26.80;74.00;;;;;;5063561;28;20377;-81
2024/01/25 12:04:04;;;;;;;9.25;3.35;;;26.80;73.90;;;;;;5056204;28;20040;-79
2024/01/25 12:06:32;;;;;;;9.30;3.17;;;26.80;74.10;;;;;;5054228;28;20490;-81
2024/01/25 12:09:10;;;;;;;8.10;3.30;;;26.80;74.10;;;;;;5050941;28;20085;-81
2024/01/25 12:11:39;;;;;;;10.65;3.30;;;26.80;74.20;;;;;;5053763;28;20399;-88
2024/01/25 12:14:07;;;;;;;9.95;3.80;;;26.80;74.10;;;;;;5055654;28;20028;-81
2024/01/25 12:16:35;;;;;;;10.30;3.50;;;26.80;74.30;;;;;;5061416;28;20428;-81
2024/01/25 12:19:03;;;;;;;8.95;3.10;;;26.70;74.20;;;;;;5058652;28;20052;-82
2024/01/25 12:21:33;;;;;;;11.88;3.53;;;26.70;74.40;;;;;;5070970;28;20075;-81
2024/01/25 12:24:00;;;;;;;10.07;3.85;;;26.70;74.50;;;;;;5061979;28;20078;-81
2024/01/25 12:26:27;;;;;;;8.73;3.50;;;26.70;74.50;;;;;;5067686;28;20086;-92
2024/01/25 12:28:56;;;;;;;7.95;3.60;;;26.60;74.60;;;;;;5063426;28;20024;-87
2024/01/25 12:31:23;;;;;;;10.32;3.40;;;26.60;74.90;;;;;;5066255;28;20028;-90
2024/01/25 12:33:51;;;;;;;8.98;3.40;;;26.60;74.80;;;;;;5079131;28;20017;-92
2024/01/25 12:36:18;;;;;;;9.48;3.63;;;26.60;74.70;;;;;;5074556;28;20037;-85
2024/01/25 12:38:46;;;;;;;12.52;3.80;;;26.60;74.80;;;;;;5069540;28;20032;-84
2024/01/25 12:41:13;;;;;;;12.13;3.75;;;26.60;75.00;;;;;;5077506;28;20020;-81